FDMS/MTS METAR and TAF weather

Enter ICAO airport designator
Station Type Date Time Source
FDMS METAR 2021/05/02 12:00 UTC NOAA

FDMS 021200Z 18011KT 9999 SCT040 24/11 Q1025 NOSIG


Station Type Date Time Source
FDMS Decoded METAR 2021/05/02 12:00 UTC NOAA

Manzini / Matsapa Airport, Swaziland (FDMS) 26-32S 031-18E
May 02, 2021 - 08:00 AM EDT / 2021.05.02 1200 UTC
Wind: from the S (180 degrees) at 13 MPH (11 KT):0
Visibility: greater than 7 mile(s):0
Sky conditions: partly cloudy
Temperature: 75 F (24 C)
Dew Point: 51 F (11 C)
Relative Humidity: 43%
Pressure (altimeter): 30.27 in. Hg (1025 hPa)
ob: FDMS 021200Z 18011KT 9999 SCT040 24/11 Q1025 NOSIG
cycle: 12

Station Type Date Time Source
FDMS TAF 2020/03/05 06:00 UTC NOAA

TAF TAF FDMS 050400Z 0506/0518 06007KT CAVOK

Example: see airport list